Chadron Municipal Airport
KCDR : now visible

Airfield :











YOU CAN JOIN US ON...

 
LOGIN :

Register | Disclaimer

   EN    FR    IT 

 









Legend :    VFR   Marginal VFR   IFR   Intensive IFR   Very Intensive IFR
Visi :
Ceiling :
>= 8 km
>= 3000ft
5 to 8 km
1000 to 3000 ft
1500m to 5 km
500 to 1000 ft
800 to 1500m
200 to 500 ft
< 800m
< 200 ft
Symbols :   Thunderstorms  Fog  Heavy snow  Heavy precipitations  Wind > 20 kt






- Airport Elevation : 3297 ft


KCDR - Chadron Municipal

CURRENT METAR :
  • 280753Z AUTO 26004KT 10SM CLR 10/07 A2977 RMK AO2 SLP061 T01000072 $

EXPIRED METARs :
  • 280653Z AUTO 25007KT 10SM CLR 10/07 A2977 RMK AO2 SLP060 T01000072 403500039 $
  • 280553Z AUTO 01004KT 10SM CLR 14/08 A2977 RMK AO2 SLP057 T01390078 10306 20122 50010 $

TAF KCDR
Valid from the 28 at 06:00 until the 29 at 06:00 UTC


280520Z 2806/2906 23006KT P6SM SCT150
FM281500 17011KT P6SM BKN150
FM290100 07007KT P6SM VCTS BKN100CB
KZDV FIR / North America



MET'MAP, your aeronautical weather chart ! - Copyright ORBIFLY December 2007 - Disclaimer

ORBIFLY MET'MAP TEAM :

Programming & Development : Alexandra Zaïnal
Original concept : Baudouin d'Aumeries
Technical & hardware support : Manuel Goepfert
Assistance : Marc-Olivier Méhu

Contact : metmap@orbifly.com




SOURCES & CREDITS :

   NOAA       Earth
Advisory